SDM1507 UHWW-RJGG
Flight info
| Callsign | SDM1507 |
|---|---|
| Flight time | 1h 44m |
| Altitude | 35000 |
| Route | VATIS2F VATIS A900 RIVAT M814 DOHAE G711 KANSU/N0468F360 B332 IGRAS/N0472F350 Y332 KAPPA Y333 DISSH Y51 SAMON Y511 CHESS |
| Aircraft | B738/M-SDE2E3FGHIRWXY/LB1 |
Departure
| Time | 2026-04-29 21:33 |
|---|---|
| Airport | Vladivostok International Airport (UHWW) |
Arrival
| Time | 2026-04-29 23:18 |
|---|---|
| Airport | Chubu Centrair International Airport (RJGG) |
| Time | Latitude | Longitude | Altitude | Speed | Heading |
|---|---|---|---|---|---|
| 2026-04-29 21:11 | 43.39880 | 132.16899 | 41 ft | 0 kts | 152° |
| 2026-04-29 21:25 | 43.39887 | 132.16894 | 59 ft | 3 kts | 151° |
| 2026-04-29 21:25 | 43.39904 | 132.16880 | 60 ft | 3 kts | 149° |
| 2026-04-29 21:26 | 43.39922 | 132.16866 | 59 ft | 3 kts | 146° |
| 2026-04-29 21:26 | 43.39938 | 132.16850 | 62 ft | 3 kts | 138° |
| 2026-04-29 21:26 | 43.39951 | 132.16830 | 59 ft | 3 kts | 116° |
| 2026-04-29 21:26 | 43.39956 | 132.16811 | 60 ft | 2 kts | 68° |
| 2026-04-29 21:27 | 43.39955 | 132.16807 | 59 ft | 0 kts | 61° |
| 2026-04-29 21:29 | 43.39974 | 132.16854 | 63 ft | 9 kts | 61° |
| 2026-04-29 21:30 | 43.40002 | 132.16926 | 63 ft | 8 kts | 61° |
| 2026-04-29 21:30 | 43.40031 | 132.16996 | 67 ft | 8 kts | 60° |
| 2026-04-29 21:30 | 43.40034 | 132.17005 | 67 ft | 0 kts | 60° |
| 2026-04-29 21:31 | 43.40054 | 132.17054 | 66 ft | 11 kts | 57° |
| 2026-04-29 21:31 | 43.40119 | 132.17082 | 63 ft | 11 kts | 333° |
| 2026-04-29 21:31 | 43.40185 | 132.17034 | 66 ft | 11 kts | 332° |
| 2026-04-29 21:32 | 43.40249 | 132.16988 | 63 ft | 10 kts | 332° |
| 2026-04-29 21:32 | 43.40313 | 132.16942 | 66 ft | 12 kts | 333° |
| 2026-04-29 21:32 | 43.40402 | 132.16877 | 60 ft | 16 kts | 328° |
| 2026-04-29 21:32 | 43.40410 | 132.16744 | 61 ft | 17 kts | 241° |
| 2026-04-29 21:33 | 43.40253 | 132.16357 | 67 ft | 79 kts | 241° |
| 2026-04-29 21:33 | 43.39884 | 132.15448 | 64 ft | 136 kts | 240° |
| 2026-04-29 21:33 | 43.39350 | 132.14116 | 117 ft | 178 kts | 241° |
| 2026-04-29 21:33 | 43.38728 | 132.12588 | 671 ft | 183 kts | 241° |
| 2026-04-29 21:34 | 43.38167 | 132.11079 | 1596 ft | 170 kts | 245° |
| 2026-04-29 21:34 | 43.37627 | 132.09618 | 2251 ft | 180 kts | 242° |
| 2026-04-29 21:34 | 43.36953 | 132.08008 | 2473 ft | 207 kts | 241° |
| 2026-04-29 21:34 | 43.36180 | 132.06163 | 2720 ft | 230 kts | 241° |
| 2026-04-29 21:35 | 43.35378 | 132.04229 | 3387 ft | 233 kts | 242° |
| 2026-04-29 21:35 | 43.34514 | 132.02334 | 4103 ft | 237 kts | 229° |
| 2026-04-29 21:35 | 43.33140 | 132.01131 | 4754 ft | 244 kts | 197° |
| 2026-04-29 21:35 | 43.31428 | 132.01041 | 5366 ft | 253 kts | 166° |
| 2026-04-29 21:36 | 43.29843 | 132.02114 | 5976 ft | 258 kts | 142° |
| 2026-04-29 21:36 | 43.28527 | 132.03715 | 6567 ft | 263 kts | 135° |
| 2026-04-29 21:36 | 43.27227 | 132.05480 | 7204 ft | 265 kts | 134° |
| 2026-04-29 21:36 | 43.25936 | 132.07241 | 7881 ft | 266 kts | 134° |
| 2026-04-29 21:37 | 43.24612 | 132.09019 | 8535 ft | 267 kts | 135° |
| 2026-04-29 21:37 | 43.23266 | 132.10797 | 9189 ft | 270 kts | 135° |
| 2026-04-29 21:37 | 43.21901 | 132.12583 | 9825 ft | 273 kts | 136° |
| 2026-04-29 21:37 | 43.20521 | 132.14380 | 10420 ft | 275 kts | 136° |
| 2026-04-29 21:38 | 43.19102 | 132.16163 | 10997 ft | 278 kts | 144° |
| 2026-04-29 21:38 | 43.17318 | 132.17184 | 11454 ft | 284 kts | 175° |
| 2026-04-29 21:38 | 43.15284 | 132.17178 | 11648 ft | 302 kts | 185° |
| 2026-04-29 21:38 | 43.13112 | 132.16984 | 11810 ft | 323 kts | 186° |
| 2026-04-29 21:39 | 43.10802 | 132.16766 | 11967 ft | 343 kts | 185° |
| 2026-04-29 21:39 | 43.08351 | 132.16542 | 12115 ft | 362 kts | 185° |
| 2026-04-29 21:39 | 43.05776 | 132.16319 | 12358 ft | 377 kts | 185° |
| 2026-04-29 21:39 | 43.03135 | 132.16100 | 12846 ft | 383 kts | 185° |
| 2026-04-29 21:40 | 43.00460 | 132.15884 | 13490 ft | 386 kts | 185° |
| 2026-04-29 21:40 | 42.97767 | 132.15670 | 14127 ft | 389 kts | 185° |
| 2026-04-29 21:40 | 42.95050 | 132.15454 | 14706 ft | 392 kts | 185° |
| 2026-04-29 21:40 | 42.92309 | 132.15236 | 15303 ft | 395 kts | 185° |
| 2026-04-29 21:41 | 42.89553 | 132.15017 | 15911 ft | 398 kts | 185° |
| 2026-04-29 21:41 | 42.86815 | 132.14799 | 16503 ft | 401 kts | 185° |
| 2026-04-29 21:41 | 42.84003 | 132.14731 | 17063 ft | 406 kts | 180° |
| 2026-04-29 21:41 | 42.81164 | 132.14951 | 17632 ft | 410 kts | 177° |
| 2026-04-29 21:42 | 42.78309 | 132.15269 | 18196 ft | 413 kts | 176° |
| 2026-04-29 21:42 | 42.76404 | 132.15488 | 18540 ft | 415 kts | 176° |
| 2026-04-29 21:42 | 42.73515 | 132.15805 | 19047 ft | 417 kts | 177° |
| 2026-04-29 21:42 | 42.70613 | 132.16099 | 19562 ft | 420 kts | 177° |
| 2026-04-29 21:43 | 42.67688 | 132.16375 | 20065 ft | 422 kts | 178° |
| 2026-04-29 21:43 | 42.64752 | 132.16640 | 20565 ft | 424 kts | 178° |
| 2026-04-29 21:43 | 42.60825 | 132.16984 | 21216 ft | 427 kts | 178° |
| 2026-04-29 21:43 | 42.58818 | 132.17159 | 21530 ft | 429 kts | 178° |
| 2026-04-29 21:44 | 42.55828 | 132.17419 | 22010 ft | 430 kts | 178° |
| 2026-04-29 21:44 | 42.52831 | 132.17681 | 22500 ft | 432 kts | 178° |
| 2026-04-29 21:44 | 42.49822 | 132.17944 | 22925 ft | 435 kts | 178° |
| 2026-04-29 21:44 | 42.46788 | 132.18209 | 23326 ft | 439 kts | 178° |
| 2026-04-29 21:45 | 42.43767 | 132.18472 | 23716 ft | 441 kts | 178° |
| 2026-04-29 21:45 | 42.40682 | 132.18740 | 24089 ft | 443 kts | 178° |
| 2026-04-29 21:45 | 42.37599 | 132.19006 | 24479 ft | 444 kts | 178° |
| 2026-04-29 21:45 | 42.34512 | 132.19272 | 24852 ft | 446 kts | 178° |
| 2026-04-29 21:46 | 42.31413 | 132.19539 | 25226 ft | 446 kts | 178° |
| 2026-04-29 21:46 | 42.28303 | 132.19809 | 25593 ft | 448 kts | 178° |
| 2026-04-29 21:46 | 42.25183 | 132.20079 | 25938 ft | 449 kts | 179° |
| 2026-04-29 21:46 | 42.22055 | 132.20350 | 26248 ft | 452 kts | 179° |
| 2026-04-29 21:47 | 42.18935 | 132.20620 | 26534 ft | 454 kts | 179° |
| 2026-04-29 21:47 | 42.15775 | 132.20894 | 26829 ft | 456 kts | 179° |
| 2026-04-29 21:47 | 42.12595 | 132.21169 | 27127 ft | 458 kts | 179° |
| 2026-04-29 21:47 | 42.09402 | 132.21444 | 27429 ft | 460 kts | 179° |
| 2026-04-29 21:48 | 42.06203 | 132.21720 | 27774 ft | 460 kts | 179° |
| 2026-04-29 21:48 | 42.03003 | 132.21996 | 28082 ft | 462 kts | 180° |
| 2026-04-29 21:48 | 41.99790 | 132.22273 | 28368 ft | 463 kts | 180° |
| 2026-04-29 21:48 | 41.96572 | 132.22548 | 28637 ft | 465 kts | 180° |
| 2026-04-29 21:49 | 41.93334 | 132.22826 | 29007 ft | 464 kts | 180° |
| 2026-04-29 21:49 | 41.90109 | 132.23105 | 29457 ft | 462 kts | 181° |
| 2026-04-29 21:49 | 41.86911 | 132.23381 | 29910 ft | 460 kts | 181° |
| 2026-04-29 21:49 | 41.83726 | 132.23655 | 30304 ft | 457 kts | 181° |
| 2026-04-29 21:50 | 41.80573 | 132.23929 | 30847 ft | 450 kts | 182° |
| 2026-04-29 21:50 | 41.77493 | 132.24193 | 31240 ft | 448 kts | 182° |
| 2026-04-29 21:50 | 41.74378 | 132.24457 | 31475 ft | 448 kts | 184° |
| 2026-04-29 21:50 | 41.71256 | 132.24718 | 31698 ft | 449 kts | 184° |
| 2026-04-29 21:51 | 41.68133 | 132.24983 | 32007 ft | 448 kts | 184° |
| 2026-04-29 21:51 | 41.65030 | 132.25249 | 32380 ft | 445 kts | 184° |
| 2026-04-29 21:51 | 41.58879 | 132.25775 | 33097 ft | 440 kts | 185° |
| 2026-04-29 21:52 | 41.55829 | 132.26034 | 33472 ft | 437 kts | 185° |
| 2026-04-29 21:52 | 41.52791 | 132.26291 | 33732 ft | 437 kts | 185° |
| 2026-04-29 21:52 | 41.49746 | 132.26547 | 33949 ft | 437 kts | 185° |
| 2026-04-29 21:52 | 41.46716 | 132.26801 | 34172 ft | 437 kts | 185° |
| 2026-04-29 21:53 | 41.43719 | 132.27047 | 34430 ft | 435 kts | 186° |
| 2026-04-29 21:53 | 41.40700 | 132.27293 | 34713 ft | 433 kts | 186° |
| 2026-04-29 21:53 | 41.37699 | 132.27535 | 34967 ft | 431 kts | 186° |
| 2026-04-29 21:53 | 41.34703 | 132.27776 | 35069 ft | 431 kts | 186° |
| 2026-04-29 21:54 | 41.28704 | 132.28255 | 35073 ft | 431 kts | 186° |
| 2026-04-29 21:54 | 41.22764 | 132.28734 | 35073 ft | 428 kts | 186° |
| 2026-04-29 21:55 | 41.16815 | 132.29212 | 35079 ft | 427 kts | 186° |
| 2026-04-29 21:55 | 41.10924 | 132.29683 | 35086 ft | 425 kts | 186° |
| 2026-04-29 21:56 | 41.05022 | 132.30155 | 35090 ft | 425 kts | 186° |
| 2026-04-29 21:56 | 40.99120 | 132.30627 | 35087 ft | 424 kts | 186° |
| 2026-04-29 21:57 | 40.93214 | 132.31098 | 35095 ft | 424 kts | 186° |
| 2026-04-29 21:57 | 40.87353 | 132.31564 | 35094 ft | 424 kts | 186° |
| 2026-04-29 21:58 | 40.81457 | 132.32033 | 35099 ft | 424 kts | 186° |
| 2026-04-29 21:58 | 40.75570 | 132.32499 | 35092 ft | 423 kts | 187° |
| 2026-04-29 21:59 | 40.69680 | 132.32967 | 35098 ft | 423 kts | 187° |
| 2026-04-29 21:59 | 40.63797 | 132.33433 | 35103 ft | 423 kts | 187° |
| 2026-04-29 22:00 | 40.57918 | 132.33897 | 35110 ft | 423 kts | 187° |
| 2026-04-29 22:00 | 40.52088 | 132.34358 | 35107 ft | 422 kts | 187° |
| 2026-04-29 22:01 | 40.46235 | 132.34818 | 35115 ft | 421 kts | 187° |
| 2026-04-29 22:01 | 40.40371 | 132.35278 | 35096 ft | 420 kts | 187° |
| 2026-04-29 22:02 | 40.34539 | 132.35736 | 35114 ft | 420 kts | 187° |
| 2026-04-29 22:02 | 40.28745 | 132.36189 | 35115 ft | 419 kts | 187° |
| 2026-04-29 22:03 | 40.22924 | 132.36644 | 35102 ft | 419 kts | 187° |
| 2026-04-29 22:03 | 40.17104 | 132.37098 | 35110 ft | 418 kts | 187° |
| 2026-04-29 22:04 | 40.11305 | 132.37550 | 35093 ft | 417 kts | 188° |
| 2026-04-29 22:04 | 40.05517 | 132.38001 | 35107 ft | 415 kts | 188° |
| 2026-04-29 22:05 | 39.99791 | 132.38445 | 35115 ft | 414 kts | 187° |
| 2026-04-29 22:06 | 39.91170 | 132.39112 | 35118 ft | 413 kts | 187° |
| 2026-04-29 22:06 | 39.85427 | 132.39557 | 35111 ft | 412 kts | 188° |
| 2026-04-29 22:07 | 39.79706 | 132.39998 | 35119 ft | 411 kts | 188° |
| 2026-04-29 22:07 | 39.74004 | 132.40436 | 35125 ft | 410 kts | 188° |
| 2026-04-29 22:08 | 39.68349 | 132.40871 | 35128 ft | 409 kts | 188° |
| 2026-04-29 22:08 | 39.62663 | 132.41309 | 35123 ft | 407 kts | 189° |
| 2026-04-29 22:09 | 39.57008 | 132.41743 | 35119 ft | 405 kts | 189° |
| 2026-04-29 22:09 | 39.51389 | 132.42172 | 35125 ft | 403 kts | 188° |
| 2026-04-29 22:10 | 39.45810 | 132.42598 | 35138 ft | 401 kts | 189° |
| 2026-04-29 22:10 | 39.40282 | 132.43020 | 35131 ft | 399 kts | 189° |
| 2026-04-29 22:11 | 39.34760 | 132.43405 | 35124 ft | 395 kts | 190° |
| 2026-04-29 22:11 | 39.29293 | 132.43715 | 35131 ft | 392 kts | 190° |
| 2026-04-29 22:12 | 39.23851 | 132.44019 | 35138 ft | 390 kts | 190° |
| 2026-04-29 22:12 | 39.18425 | 132.44331 | 35132 ft | 389 kts | 190° |
| 2026-04-29 22:13 | 39.13028 | 132.44641 | 35133 ft | 388 kts | 190° |
| 2026-04-29 22:13 | 39.07640 | 132.44952 | 35139 ft | 387 kts | 190° |
| 2026-04-29 22:14 | 39.02290 | 132.45261 | 35145 ft | 387 kts | 190° |
| 2026-04-29 22:14 | 38.96907 | 132.45570 | 35132 ft | 387 kts | 190° |
| 2026-04-29 22:15 | 38.91519 | 132.45881 | 35145 ft | 388 kts | 190° |
| 2026-04-29 22:15 | 38.86119 | 132.46191 | 35144 ft | 389 kts | 190° |
| 2026-04-29 22:16 | 38.80702 | 132.46503 | 35143 ft | 389 kts | 190° |
| 2026-04-29 22:16 | 38.75281 | 132.46815 | 35140 ft | 390 kts | 189° |
| 2026-04-29 22:17 | 38.69887 | 132.47124 | 35146 ft | 391 kts | 189° |
| 2026-04-29 22:17 | 38.64444 | 132.47435 | 35153 ft | 392 kts | 189° |
| 2026-04-29 22:18 | 38.58935 | 132.48262 | 35158 ft | 403 kts | 184° |
| 2026-04-29 22:18 | 38.53392 | 132.49430 | 35148 ft | 404 kts | 184° |
| 2026-04-29 22:19 | 38.47845 | 132.50586 | 35156 ft | 404 kts | 184° |
| 2026-04-29 22:19 | 38.42287 | 132.51710 | 35157 ft | 404 kts | 184° |
| 2026-04-29 22:20 | 38.36723 | 132.52822 | 35138 ft | 405 kts | 184° |
| 2026-04-29 22:20 | 38.31148 | 132.53932 | 35150 ft | 405 kts | 184° |
| 2026-04-29 22:21 | 38.25576 | 132.55041 | 35158 ft | 405 kts | 184° |
| 2026-04-29 22:21 | 38.20000 | 132.56148 | 35157 ft | 405 kts | 184° |
| 2026-04-29 22:22 | 38.14426 | 132.57254 | 35153 ft | 405 kts | 184° |
| 2026-04-29 22:22 | 38.08861 | 132.58356 | 35154 ft | 405 kts | 184° |
| 2026-04-29 22:23 | 38.03304 | 132.59456 | 35148 ft | 404 kts | 184° |
| 2026-04-29 22:23 | 37.97755 | 132.60551 | 35127 ft | 403 kts | 184° |
| 2026-04-29 22:24 | 37.92220 | 132.61645 | 35147 ft | 403 kts | 184° |
| 2026-04-29 22:24 | 37.86674 | 132.62743 | 35159 ft | 404 kts | 184° |
| 2026-04-29 22:25 | 37.82050 | 132.63658 | 35160 ft | 405 kts | 184° |
| 2026-04-29 22:25 | 37.76469 | 132.64761 | 35145 ft | 406 kts | 184° |
| 2026-04-29 22:26 | 37.70878 | 132.65865 | 35158 ft | 407 kts | 184° |
| 2026-04-29 22:26 | 37.65234 | 132.66977 | 35157 ft | 408 kts | 184° |
| 2026-04-29 22:27 | 37.59630 | 132.68077 | 35131 ft | 409 kts | 184° |
| 2026-04-29 22:27 | 37.54003 | 132.69179 | 35150 ft | 409 kts | 184° |
| 2026-04-29 22:28 | 37.48434 | 132.70269 | 35154 ft | 410 kts | 184° |
| 2026-04-29 22:28 | 37.42757 | 132.71379 | 35145 ft | 410 kts | 184° |
| 2026-04-29 22:29 | 37.37143 | 132.72475 | 35147 ft | 410 kts | 184° |
| 2026-04-29 22:29 | 37.31565 | 132.73561 | 35153 ft | 410 kts | 184° |
| 2026-04-29 22:30 | 37.25889 | 132.74707 | 35150 ft | 411 kts | 183° |
| 2026-04-29 22:30 | 37.20252 | 132.75875 | 35133 ft | 410 kts | 183° |
| 2026-04-29 22:31 | 37.14616 | 132.77038 | 35151 ft | 410 kts | 183° |
| 2026-04-29 22:31 | 37.08979 | 132.78194 | 35147 ft | 410 kts | 183° |
| 2026-04-29 22:32 | 37.03345 | 132.79346 | 35129 ft | 411 kts | 184° |
| 2026-04-29 22:32 | 36.97702 | 132.80499 | 35138 ft | 410 kts | 183° |
| 2026-04-29 22:33 | 36.92060 | 132.81650 | 35147 ft | 411 kts | 183° |
| 2026-04-29 22:33 | 36.86376 | 132.82807 | 35148 ft | 411 kts | 183° |
| 2026-04-29 22:34 | 36.80722 | 132.83958 | 35141 ft | 412 kts | 183° |
| 2026-04-29 22:34 | 36.75055 | 132.85124 | 35148 ft | 416 kts | 180° |
| 2026-04-29 22:34 | 36.72249 | 132.86413 | 35146 ft | 446 kts | 163° |
| 2026-04-29 22:35 | 36.69660 | 132.88723 | 35143 ft | 472 kts | 149° |
| 2026-04-29 22:35 | 36.67536 | 132.91987 | 35155 ft | 498 kts | 133° |
| 2026-04-29 22:35 | 36.65750 | 132.95723 | 35156 ft | 503 kts | 131° |
| 2026-04-29 22:36 | 36.62327 | 133.03352 | 35153 ft | 505 kts | 130° |
| 2026-04-29 22:36 | 36.58876 | 133.10981 | 35123 ft | 504 kts | 131° |
| 2026-04-29 22:37 | 36.55351 | 133.18572 | 35144 ft | 503 kts | 131° |
| 2026-04-29 22:37 | 36.51817 | 133.26093 | 35150 ft | 503 kts | 131° |
| 2026-04-29 22:38 | 36.48286 | 133.33594 | 35147 ft | 503 kts | 131° |
| 2026-04-29 22:38 | 36.44747 | 133.41106 | 35150 ft | 503 kts | 131° |
| 2026-04-29 22:39 | 36.41188 | 133.48650 | 35152 ft | 502 kts | 131° |
| 2026-04-29 22:39 | 36.37655 | 133.56120 | 35148 ft | 502 kts | 131° |
| 2026-04-29 22:40 | 36.34118 | 133.63583 | 35147 ft | 501 kts | 131° |
| 2026-04-29 22:40 | 36.30592 | 133.71028 | 35126 ft | 503 kts | 129° |
| 2026-04-29 22:40 | 36.29103 | 133.75035 | 35143 ft | 517 kts | 119° |
| 2026-04-29 22:41 | 36.28079 | 133.79349 | 35136 ft | 527 kts | 110° |
| 2026-04-29 22:41 | 36.27381 | 133.88505 | 35153 ft | 536 kts | 99° |
| 2026-04-29 22:42 | 36.27071 | 133.97717 | 35143 ft | 534 kts | 99° |
| 2026-04-29 22:42 | 36.26624 | 134.06941 | 35148 ft | 532 kts | 100° |
| 2026-04-29 22:43 | 36.26133 | 134.16093 | 35148 ft | 532 kts | 101° |
| 2026-04-29 22:43 | 36.25648 | 134.25249 | 35154 ft | 533 kts | 100° |
| 2026-04-29 22:44 | 36.25157 | 134.34429 | 35157 ft | 535 kts | 101° |
| 2026-04-29 22:44 | 36.24658 | 134.43635 | 35153 ft | 536 kts | 100° |
| 2026-04-29 22:45 | 36.24149 | 134.52868 | 35167 ft | 538 kts | 100° |
| 2026-04-29 22:45 | 36.23632 | 134.62065 | 35158 ft | 539 kts | 100° |
| 2026-04-29 22:46 | 36.23238 | 134.68988 | 35159 ft | 540 kts | 100° |
| 2026-04-29 22:46 | 36.22703 | 134.78312 | 35155 ft | 541 kts | 100° |
| 2026-04-29 22:47 | 36.22163 | 134.87604 | 35158 ft | 541 kts | 100° |
| 2026-04-29 22:47 | 36.21625 | 134.96804 | 34807 ft | 529 kts | 101° |
| 2026-04-29 22:47 | 36.21407 | 135.00472 | 34400 ft | 529 kts | 101° |
| 2026-04-29 22:48 | 36.21132 | 135.05018 | 33752 ft | 531 kts | 101° |
| 2026-04-29 22:48 | 36.20857 | 135.09564 | 33306 ft | 526 kts | 100° |
| 2026-04-29 22:48 | 36.20584 | 135.14074 | 33221 ft | 527 kts | 100° |
| 2026-04-29 22:49 | 36.19338 | 135.23054 | 33178 ft | 523 kts | 116° |
| 2026-04-29 22:49 | 36.16353 | 135.31150 | 32930 ft | 516 kts | 129° |
| 2026-04-29 22:49 | 36.14604 | 135.35005 | 32643 ft | 512 kts | 129° |
| 2026-04-29 22:50 | 36.12999 | 135.38524 | 32407 ft | 507 kts | 129° |
| 2026-04-29 22:50 | 36.11287 | 135.42311 | 32148 ft | 502 kts | 128° |
| 2026-04-29 22:50 | 36.09596 | 135.46088 | 31904 ft | 501 kts | 128° |
| 2026-04-29 22:50 | 36.07920 | 135.49860 | 31664 ft | 500 kts | 128° |
| 2026-04-29 22:51 | 36.06255 | 135.53623 | 31398 ft | 499 kts | 127° |
| 2026-04-29 22:51 | 36.04610 | 135.57345 | 31167 ft | 498 kts | 127° |
| 2026-04-29 22:51 | 36.02972 | 135.61049 | 30937 ft | 497 kts | 127° |
| 2026-04-29 22:52 | 36.02203 | 135.62786 | 30844 ft | 497 kts | 127° |
| 2026-04-29 22:52 | 36.00814 | 135.65918 | 30639 ft | 496 kts | 127° |
| 2026-04-29 22:53 | 35.98558 | 135.70998 | 30323 ft | 495 kts | 127° |
| 2026-04-29 22:53 | 35.96901 | 135.74725 | 30060 ft | 494 kts | 127° |
| 2026-04-29 22:53 | 35.95246 | 135.78442 | 29797 ft | 494 kts | 127° |
| 2026-04-29 22:54 | 35.93590 | 135.82158 | 29519 ft | 492 kts | 127° |
| 2026-04-29 22:54 | 35.91940 | 135.85852 | 29252 ft | 491 kts | 127° |
| 2026-04-29 22:54 | 35.90296 | 135.89528 | 28991 ft | 489 kts | 127° |
| 2026-04-29 22:54 | 35.88660 | 135.93186 | 28681 ft | 485 kts | 127° |
| 2026-04-29 22:55 | 35.87034 | 135.96820 | 28242 ft | 480 kts | 127° |
| 2026-04-29 22:55 | 35.85429 | 136.00402 | 27799 ft | 476 kts | 127° |
| 2026-04-29 22:55 | 35.83832 | 136.03958 | 27361 ft | 472 kts | 126° |
| 2026-04-29 22:55 | 35.82248 | 136.07482 | 26933 ft | 469 kts | 126° |
| 2026-04-29 22:56 | 35.80674 | 136.10981 | 26494 ft | 466 kts | 126° |
| 2026-04-29 22:56 | 35.79106 | 136.14461 | 26057 ft | 463 kts | 126° |
| 2026-04-29 22:56 | 35.77410 | 136.17779 | 25618 ft | 451 kts | 136° |
| 2026-04-29 22:56 | 35.75315 | 136.20547 | 25225 ft | 435 kts | 147° |
| 2026-04-29 22:57 | 35.72957 | 136.22805 | 24749 ft | 424 kts | 156° |
| 2026-04-29 22:57 | 35.70413 | 136.24505 | 24344 ft | 412 kts | 163° |
| 2026-04-29 22:57 | 35.67846 | 136.26056 | 23917 ft | 411 kts | 163° |
| 2026-04-29 22:57 | 35.65291 | 136.27634 | 23417 ft | 411 kts | 161° |
| 2026-04-29 22:58 | 35.63625 | 136.28741 | 23116 ft | 411 kts | 160° |
| 2026-04-29 22:58 | 35.62395 | 136.29573 | 22879 ft | 409 kts | 160° |
| 2026-04-29 22:58 | 35.59914 | 136.31264 | 22470 ft | 406 kts | 160° |
| 2026-04-29 22:58 | 35.57455 | 136.32948 | 22034 ft | 402 kts | 160° |
| 2026-04-29 22:59 | 35.55010 | 136.34584 | 21602 ft | 397 kts | 161° |
| 2026-04-29 22:59 | 35.52577 | 136.36155 | 21225 ft | 395 kts | 159° |
| 2026-04-29 22:59 | 35.50193 | 136.37805 | 20824 ft | 392 kts | 159° |
| 2026-04-29 22:59 | 35.47810 | 136.39430 | 20414 ft | 390 kts | 159° |
| 2026-04-29 23:00 | 35.45440 | 136.41025 | 20008 ft | 388 kts | 159° |
| 2026-04-29 23:00 | 35.43077 | 136.42606 | 19610 ft | 386 kts | 159° |
| 2026-04-29 23:00 | 35.40721 | 136.44170 | 19190 ft | 384 kts | 158° |
| 2026-04-29 23:00 | 35.38385 | 136.45739 | 18790 ft | 381 kts | 159° |
| 2026-04-29 23:01 | 35.36088 | 136.47257 | 18392 ft | 379 kts | 158° |
| 2026-04-29 23:01 | 35.33708 | 136.48540 | 17910 ft | 367 kts | 174° |
| 2026-04-29 23:01 | 35.31228 | 136.48909 | 17550 ft | 354 kts | 182° |
| 2026-04-29 23:01 | 35.28782 | 136.49130 | 17132 ft | 352 kts | 182° |
| 2026-04-29 23:02 | 35.26344 | 136.49349 | 16737 ft | 350 kts | 182° |
| 2026-04-29 23:02 | 35.23923 | 136.49572 | 16346 ft | 348 kts | 181° |
| 2026-04-29 23:02 | 35.21513 | 136.49804 | 15952 ft | 346 kts | 181° |
| 2026-04-29 23:02 | 35.19180 | 136.50034 | 15578 ft | 344 kts | 181° |
| 2026-04-29 23:03 | 35.16797 | 136.50274 | 15192 ft | 342 kts | 180° |
| 2026-04-29 23:03 | 35.14426 | 136.50514 | 14814 ft | 340 kts | 180° |
| 2026-04-29 23:03 | 35.12071 | 136.50754 | 14425 ft | 338 kts | 180° |
| 2026-04-29 23:03 | 35.09733 | 136.50992 | 14030 ft | 337 kts | 180° |
| 2026-04-29 23:04 | 35.07398 | 136.51229 | 13598 ft | 336 kts | 180° |
| 2026-04-29 23:04 | 35.05854 | 136.51387 | 13327 ft | 335 kts | 179° |
| 2026-04-29 23:04 | 35.02911 | 136.51686 | 12798 ft | 332 kts | 179° |
| 2026-04-29 23:04 | 35.00604 | 136.51920 | 12288 ft | 334 kts | 179° |
| 2026-04-29 23:05 | 34.98296 | 136.52154 | 11888 ft | 332 kts | 179° |
| 2026-04-29 23:05 | 34.96004 | 136.52388 | 11488 ft | 330 kts | 178° |
| 2026-04-29 23:05 | 34.93802 | 136.52611 | 10991 ft | 332 kts | 178° |
| 2026-04-29 23:05 | 34.92635 | 136.52729 | 10782 ft | 331 kts | 178° |
| 2026-04-29 23:06 | 34.90345 | 136.52962 | 10528 ft | 325 kts | 177° |
| 2026-04-29 23:06 | 34.88124 | 136.53189 | 10351 ft | 316 kts | 177° |
| 2026-04-29 23:06 | 34.85966 | 136.53409 | 10204 ft | 307 kts | 178° |
| 2026-04-29 23:06 | 34.83866 | 136.53622 | 10074 ft | 298 kts | 178° |
| 2026-04-29 23:07 | 34.81830 | 136.53829 | 9982 ft | 288 kts | 178° |
| 2026-04-29 23:07 | 34.79876 | 136.54027 | 9955 ft | 276 kts | 178° |
| 2026-04-29 23:07 | 34.77923 | 136.54223 | 9384 ft | 284 kts | 177° |
| 2026-04-29 23:07 | 34.75948 | 136.54422 | 8998 ft | 285 kts | 177° |
| 2026-04-29 23:08 | 34.73980 | 136.54629 | 8700 ft | 284 kts | 174° |
| 2026-04-29 23:08 | 34.72122 | 136.55426 | 8366 ft | 287 kts | 147° |
| 2026-04-29 23:08 | 34.70703 | 136.57118 | 8102 ft | 287 kts | 128° |
| 2026-04-29 23:08 | 34.69540 | 136.59051 | 7798 ft | 281 kts | 127° |
| 2026-04-29 23:09 | 34.68415 | 136.60986 | 7515 ft | 280 kts | 126° |
| 2026-04-29 23:09 | 34.67293 | 136.62913 | 7217 ft | 279 kts | 127° |
| 2026-04-29 23:09 | 34.66550 | 136.64181 | 7042 ft | 279 kts | 127° |
| 2026-04-29 23:09 | 34.65457 | 136.66033 | 6768 ft | 278 kts | 127° |
| 2026-04-29 23:10 | 34.64357 | 136.67889 | 6492 ft | 277 kts | 127° |
| 2026-04-29 23:10 | 34.63247 | 136.69753 | 6208 ft | 276 kts | 126° |
| 2026-04-29 23:10 | 34.62122 | 136.71637 | 5935 ft | 274 kts | 126° |
| 2026-04-29 23:10 | 34.61004 | 136.73506 | 5654 ft | 273 kts | 126° |
| 2026-04-29 23:11 | 34.59901 | 136.75346 | 5540 ft | 265 kts | 126° |
| 2026-04-29 23:11 | 34.58832 | 136.77128 | 5411 ft | 258 kts | 126° |
| 2026-04-29 23:11 | 34.57994 | 136.78995 | 5272 ft | 250 kts | 102° |
| 2026-04-29 23:11 | 34.57961 | 136.81043 | 5206 ft | 239 kts | 82° |
| 2026-04-29 23:12 | 34.58250 | 136.82999 | 5089 ft | 232 kts | 78° |
| 2026-04-29 23:12 | 34.58685 | 136.84870 | 4853 ft | 229 kts | 61° |
| 2026-04-29 23:12 | 34.59819 | 136.86139 | 4612 ft | 224 kts | 21° |
| 2026-04-29 23:12 | 34.61312 | 136.86265 | 4529 ft | 207 kts | 355° |
| 2026-04-29 23:13 | 34.62718 | 136.86051 | 4284 ft | 200 kts | 353° |
| 2026-04-29 23:13 | 34.64074 | 136.85778 | 4031 ft | 200 kts | 352° |
| 2026-04-29 23:13 | 34.65487 | 136.85454 | 3781 ft | 211 kts | 352° |
| 2026-04-29 23:13 | 34.66926 | 136.85108 | 3494 ft | 210 kts | 352° |
| 2026-04-29 23:14 | 34.68359 | 136.84761 | 3212 ft | 209 kts | 352° |
| 2026-04-29 23:14 | 34.69793 | 136.84414 | 2920 ft | 210 kts | 352° |
| 2026-04-29 23:14 | 34.71211 | 136.84071 | 2625 ft | 204 kts | 353° |
| 2026-04-29 23:14 | 34.72563 | 136.83743 | 2355 ft | 192 kts | 352° |
| 2026-04-29 23:15 | 34.73815 | 136.83440 | 2119 ft | 177 kts | 353° |
| 2026-04-29 23:15 | 34.74981 | 136.83159 | 1882 ft | 167 kts | 353° |
| 2026-04-29 23:15 | 34.76110 | 136.82888 | 1661 ft | 163 kts | 352° |
| 2026-04-29 23:15 | 34.77220 | 136.82620 | 1435 ft | 162 kts | 351° |
| 2026-04-29 23:16 | 34.78281 | 136.82364 | 1240 ft | 162 kts | 351° |
| 2026-04-29 23:16 | 34.79397 | 136.82094 | 1014 ft | 160 kts | 351° |
| 2026-04-29 23:16 | 34.80441 | 136.81842 | 793 ft | 149 kts | 349° |
| 2026-04-29 23:16 | 34.81459 | 136.81596 | 614 ft | 146 kts | 348° |
| 2026-04-29 23:17 | 34.82446 | 136.81356 | 409 ft | 141 kts | 347° |
| 2026-04-29 23:17 | 34.83414 | 136.81120 | 284 ft | 144 kts | 348° |
| 2026-04-29 23:17 | 34.84377 | 136.80885 | 82 ft | 147 kts | 347° |
| 2026-04-29 23:17 | 34.85369 | 136.80647 | 23 ft | 131 kts | 348° |
| 2026-04-29 23:18 | 34.86114 | 136.80470 | 25 ft | 87 kts | 349° |
| 2026-04-29 23:18 | 34.86529 | 136.80424 | 26 ft | 38 kts | 16° |
| 2026-04-29 23:18 | 34.86674 | 136.80507 | 27 ft | 18 kts | 67° |
| 2026-04-29 23:18 | 34.86604 | 136.80599 | 27 ft | 17 kts | 166° |
| 2026-04-29 23:19 | 34.86491 | 136.80634 | 27 ft | 17 kts | 152° |
| 2026-04-29 23:19 | 34.86473 | 136.80757 | 27 ft | 16 kts | 79° |
| 2026-04-29 23:19 | 34.86423 | 136.80851 | 28 ft | 15 kts | 166° |
| 2026-04-29 23:19 | 34.86336 | 136.80905 | 27 ft | 15 kts | 110° |
| 2026-04-29 23:20 | 34.86350 | 136.81024 | 28 ft | 14 kts | 79° |
| 2026-04-29 23:20 | 34.86307 | 136.81112 | 27 ft | 13 kts | 160° |
| 2026-04-29 23:20 | 34.86291 | 136.81158 | 27 ft | 6 kts | 78° |
| 2026-04-29 23:20 | 34.86295 | 136.81204 | 27 ft | 0 kts | 86° |
| 2026-04-29 23:21 | 34.86295 | 136.81206 | 27 ft | 0 kts | 87° |